createdAt,value
2023-10-26T00:01:12.753Z,0.26
2023-10-26T00:03:40.515Z,0.27
2023-10-26T00:06:08.311Z,0.26
2023-10-26T00:08:36.040Z,0.30
2023-10-26T00:11:04.302Z,0.30
2023-10-26T00:13:31.935Z,0.31
2023-10-26T00:15:59.574Z,0.31
2023-10-26T00:18:27.314Z,0.34
2023-10-26T00:21:00.030Z,0.34
2023-10-26T00:23:28.381Z,0.33
2023-10-26T00:25:56.026Z,0.31
2023-10-26T00:28:23.717Z,0.31
2023-10-26T00:30:51.444Z,0.33
2023-10-26T00:33:19.173Z,0.28
2023-10-26T00:35:46.911Z,0.31
2023-10-26T00:38:15.429Z,0.30
2023-10-26T00:40:44.320Z,0.30
2023-10-26T00:43:23.630Z,0.36
2023-10-26T00:45:55.550Z,0.37
2023-10-26T00:48:24.687Z,0.36
2023-10-26T00:50:53.332Z,0.36
2023-10-26T00:53:22.337Z,0.34
2023-10-26T00:55:52.566Z,0.37
2023-10-26T00:58:22.367Z,0.40
2023-10-26T01:00:51.023Z,0.37
2023-10-26T01:03:20.002Z,0.41
2023-10-26T01:05:48.162Z,0.40
2023-10-26T01:08:16.131Z,0.48
2023-10-26T01:10:43.961Z,0.47
2023-10-26T01:13:12.139Z,0.50
2023-10-26T01:15:40.131Z,0.55
2023-10-26T01:18:08.096Z,0.64
2023-10-26T01:20:36.398Z,0.72
2023-10-26T01:23:04.925Z,0.75
2023-10-26T01:25:32.820Z,0.78
2023-10-26T01:28:00.615Z,0.81
2023-10-26T01:30:28.583Z,0.81
2023-10-26T01:32:56.597Z,0.81
2023-10-26T01:35:24.467Z,0.83
2023-10-26T01:37:52.314Z,0.82
2023-10-26T01:40:20.175Z,0.78
2023-10-26T01:42:48.084Z,0.81
2023-10-26T01:45:16.023Z,0.86
2023-10-26T01:47:44.089Z,0.90
2023-10-26T01:50:12.022Z,0.88
2023-10-26T01:52:39.803Z,0.90
2023-10-26T01:55:08.217Z,0.88
2023-10-26T01:57:40.641Z,0.89
2023-10-26T02:00:10.298Z,0.79
2023-10-26T02:02:38.140Z,0.72
2023-10-26T02:05:06.451Z,0.71
2023-10-26T02:07:34.846Z,0.68
2023-10-26T02:10:05.369Z,0.69
2023-10-26T02:12:33.292Z,0.71
2023-10-26T02:15:01.117Z,0.72
2023-10-26T02:17:30.297Z,0.75
2023-10-26T02:19:58.358Z,0.71
2023-10-26T02:22:26.201Z,0.71
2023-10-26T02:24:54.041Z,0.73
2023-10-26T02:27:21.787Z,0.83
2023-10-26T02:29:49.647Z,0.85
2023-10-26T02:32:17.353Z,0.83
2023-10-26T02:34:45.384Z,0.90
2023-10-26T02:37:13.173Z,0.93
2023-10-26T02:39:41.157Z,0.88
2023-10-26T02:42:10.461Z,0.93
2023-10-26T02:44:38.436Z,1.01
2023-10-26T02:47:06.265Z,1.01
2023-10-26T02:49:34.733Z,1.12
2023-10-26T02:52:02.527Z,1.12
2023-10-26T02:54:30.407Z,1.13
2023-10-26T03:05:49.464Z,1.15
2023-10-26T03:08:17.295Z,1.13
2023-10-26T03:10:45.397Z,1.15
2023-10-26T03:13:13.304Z,1.20
2023-10-26T03:15:40.982Z,1.24
2023-10-26T03:18:08.781Z,1.26
2023-10-26T03:20:36.616Z,1.30
2023-10-26T03:23:04.477Z,1.31
2023-10-26T03:25:32.263Z,1.28
2023-10-26T03:28:00.827Z,1.28
2023-10-26T03:30:29.520Z,1.30
2023-10-26T03:32:57.406Z,1.33
2023-10-26T03:35:25.229Z,1.35
2023-10-26T03:37:53.004Z,1.35
2023-10-26T03:40:20.789Z,1.37
2023-10-26T03:42:48.509Z,1.41
2023-10-26T03:45:16.524Z,1.37
2023-10-26T03:47:44.940Z,1.37
2023-10-26T03:50:12.842Z,1.38
2023-10-26T03:52:40.663Z,1.38
2023-10-26T03:55:08.783Z,1.40
2023-10-26T03:57:36.609Z,1.41
2023-10-26T04:00:05.480Z,1.40
2023-10-26T04:02:33.467Z,1.45
2023-10-26T04:05:01.169Z,1.48
2023-10-26T04:07:28.953Z,1.52
2023-10-26T04:09:57.080Z,1.50
2023-10-26T04:12:27.202Z,1.52
2023-10-26T04:14:56.245Z,1.55
2023-10-26T04:17:24.114Z,1.61
2023-10-26T04:19:51.826Z,1.65
2023-10-26T04:22:19.632Z,1.64
2023-10-26T04:24:47.393Z,1.68
2023-10-26T04:27:15.347Z,1.72
2023-10-26T04:29:43.993Z,1.79
2023-10-26T04:32:11.748Z,1.81
2023-10-26T04:34:45.439Z,1.83
2023-10-26T04:37:13.598Z,1.79
2023-10-26T04:39:44.921Z,1.76
2023-10-26T04:42:14.370Z,1.81
2023-10-26T04:44:42.829Z,1.82
2023-10-26T04:47:11.421Z,1.81
2023-10-26T04:49:39.318Z,1.79
2023-10-26T04:52:07.139Z,1.78
2023-10-26T04:54:35.152Z,1.76
2023-10-26T04:57:03.093Z,1.78
2023-10-26T04:59:30.835Z,1.79
2023-10-26T05:01:58.581Z,1.82
2023-10-26T05:04:26.467Z,1.83
2023-10-26T05:06:54.853Z,1.86
2023-10-26T05:09:22.894Z,1.82
2023-10-26T05:11:50.847Z,1.78
2023-10-26T05:14:18.620Z,1.75
2023-10-26T05:16:46.422Z,1.81
2023-10-26T05:19:14.093Z,1.83
2023-10-26T05:21:41.897Z,1.86
2023-10-26T05:24:10.035Z,1.90
2023-10-26T05:26:37.815Z,1.90
2023-10-26T05:29:05.624Z,1.89
2023-10-26T05:31:33.383Z,1.89
2023-10-26T05:34:01.105Z,1.95
2023-10-26T05:36:29.238Z,1.95
2023-10-26T05:38:57.110Z,1.96
2023-10-26T05:41:24.903Z,2.02
2023-10-26T05:43:52.749Z,2.06
2023-10-26T05:46:20.491Z,2.06
2023-10-26T05:48:48.254Z,2.05
2023-10-26T05:51:16.858Z,2.06
2023-10-26T05:53:44.684Z,2.11
2023-10-26T05:56:12.623Z,2.13
2023-10-26T05:58:40.449Z,2.20
2023-10-26T06:01:08.203Z,2.24
2023-10-26T06:03:36.003Z,2.27
2023-10-26T06:06:04.316Z,2.31
2023-10-26T06:08:34.859Z,2.37
2023-10-26T06:11:02.874Z,2.36
2023-10-26T06:13:33.826Z,2.41
2023-10-26T06:16:01.756Z,2.44
2023-10-26T06:18:29.358Z,2.45
2023-10-26T06:21:01.550Z,2.47
2023-10-26T06:23:30.265Z,2.47
2023-10-26T06:26:03.605Z,2.52
2023-10-26T06:28:31.621Z,2.58
2023-10-26T06:31:10.573Z,2.66
2023-10-26T06:33:39.003Z,2.68
2023-10-26T06:36:07.406Z,2.71
2023-10-26T06:38:35.045Z,2.74
2023-10-26T06:41:02.845Z,2.76
2023-10-26T06:43:30.825Z,2.75
2023-10-26T06:45:59.167Z,2.72
2023-10-26T06:48:26.934Z,2.64
2023-10-26T06:51:05.602Z,2.66
2023-10-26T06:53:33.294Z,2.71
2023-10-26T06:56:00.879Z,2.71
2023-10-26T06:58:29.048Z,2.72
2023-10-26T07:00:57.034Z,2.75
2023-10-26T07:03:25.962Z,2.74
2023-10-26T07:05:53.701Z,2.74
2023-10-26T07:08:21.192Z,2.71
2023-10-26T07:10:48.751Z,2.69
2023-10-26T07:13:18.511Z,2.64
2023-10-26T07:15:46.226Z,2.58
2023-10-26T07:18:16.952Z,2.51
2023-10-26T07:20:44.624Z,2.48
2023-10-26T07:23:13.458Z,2.52
2023-10-26T07:25:41.048Z,2.56
2023-10-26T07:28:08.566Z,2.64
2023-10-26T07:30:43.509Z,2.66
2023-10-26T07:33:11.559Z,2.66
2023-10-26T07:35:42.002Z,2.59
2023-10-26T07:38:35.174Z,2.52
2023-10-26T07:40:59.104Z,2.45
2023-10-26T07:43:28.325Z,2.40
2023-10-26T07:45:56.436Z,2.37
2023-10-26T07:48:24.187Z,2.37
2023-10-26T07:50:52.591Z,2.42
2023-10-26T07:53:20.226Z,2.48
2023-10-26T07:55:47.926Z,2.54
2023-10-26T07:58:15.818Z,2.58
2023-10-26T08:00:43.672Z,2.62
2023-10-26T08:03:11.298Z,2.66
2023-10-26T08:05:38.868Z,2.71
2023-10-26T08:08:06.445Z,2.72
2023-10-26T08:10:38.393Z,2.69
2023-10-26T08:13:06.743Z,2.75
2023-10-26T08:16:09.957Z,2.74
2023-10-26T08:18:21.987Z,2.64
2023-10-26T08:20:53.060Z,2.52
2023-10-26T08:23:21.257Z,2.44
2023-10-26T08:25:49.025Z,2.33
2023-10-26T08:28:19.816Z,2.23
2023-10-26T08:30:47.349Z,2.20
2023-10-26T08:33:16.534Z,2.27
2023-10-26T08:35:51.197Z,2.20
2023-10-26T08:38:18.844Z,2.14
2023-10-26T08:40:53.168Z,2.16
2023-10-26T08:43:21.822Z,2.09
2023-10-26T08:45:49.988Z,2.03
2023-10-26T08:48:21.522Z,2.03
2023-10-26T08:50:50.031Z,2.05
2023-10-26T08:53:17.601Z,2.07
2023-10-26T08:55:45.305Z,2.10
2023-10-26T08:58:12.967Z,2.14
2023-10-26T09:00:42.154Z,2.10
2023-10-26T09:03:09.885Z,2.07
2023-10-26T09:05:57.733Z,2.07
2023-10-26T09:08:28.030Z,2.06
2023-10-26T09:10:56.044Z,2.06
2023-10-26T09:13:28.193Z,2.05
2023-10-26T09:15:59.621Z,2.06
2023-10-26T09:18:28.340Z,1.98
2023-10-26T09:21:07.036Z,1.92
2023-10-26T09:23:36.810Z,1.87
2023-10-26T09:26:09.573Z,1.87
2023-10-26T09:28:57.542Z,1.92
2023-10-26T09:31:26.426Z,1.96
2023-10-26T09:33:54.162Z,1.99
2023-10-26T09:36:21.993Z,2.06
2023-10-26T09:38:50.610Z,2.11
2023-10-26T09:41:22.660Z,2.17
2023-10-26T09:43:50.367Z,2.33
2023-10-26T09:46:21.861Z,2.45
2023-10-26T09:48:50.485Z,2.52
2023-10-26T09:51:21.212Z,2.59
2023-10-26T09:53:49.860Z,2.69
2023-10-26T09:56:27.374Z,2.82
2023-10-26T09:58:55.170Z,2.91
2023-10-26T10:01:39.366Z,3.04
2023-10-26T10:04:11.495Z,3.13
2023-10-26T10:06:53.470Z,3.20
2023-10-26T10:09:22.008Z,3.20
2023-10-26T10:12:40.371Z,3.19
2023-10-26T10:15:36.318Z,3.17
2023-10-26T10:18:04.840Z,3.17
2023-10-26T10:20:34.778Z,3.19
2023-10-26T10:23:04.483Z,3.16
2023-10-26T10:25:50.773Z,3.16
2023-10-26T10:28:20.265Z,3.17
2023-10-26T10:30:57.426Z,3.19
2023-10-26T10:33:29.939Z,3.23
2023-10-26T10:36:03.073Z,3.27
2023-10-26T10:38:31.966Z,3.34
2023-10-26T10:40:59.812Z,3.38
2023-10-26T10:43:39.055Z,3.41
2023-10-26T10:46:25.199Z,3.45
2023-10-26T10:49:09.887Z,3.51
2023-10-26T10:51:42.626Z,3.58
2023-10-26T10:54:29.414Z,3.64
2023-10-26T10:57:05.417Z,3.71
2023-10-26T10:59:33.163Z,3.74
2023-10-26T11:02:14.655Z,3.79
2023-10-26T11:05:12.622Z,3.83
2023-10-26T11:07:40.866Z,3.85
2023-10-26T11:10:09.413Z,3.81
2023-10-26T11:12:37.286Z,3.75
2023-10-26T11:15:05.726Z,3.75
2023-10-26T11:17:35.658Z,3.75
2023-10-26T11:20:04.694Z,3.74
2023-10-26T11:22:33.088Z,3.75
2023-10-26T11:25:01.464Z,3.75
2023-10-26T11:27:30.719Z,3.75
2023-10-26T11:30:09.743Z,3.69
2023-10-26T11:32:37.530Z,3.68
2023-10-26T11:35:13.081Z,3.66
2023-10-26T11:37:44.952Z,3.69
2023-10-26T11:40:14.754Z,3.69
2023-10-26T11:42:58.342Z,3.76
2023-10-26T11:45:27.421Z,3.74
2023-10-26T11:48:02.471Z,3.74
2023-10-26T11:50:38.043Z,3.71
2023-10-26T11:53:06.978Z,3.66
2023-10-26T11:55:35.263Z,3.61
2023-10-26T11:58:07.284Z,3.52
2023-10-26T12:00:35.263Z,3.45
2023-10-26T12:03:03.099Z,3.40
2023-10-26T12:05:31.636Z,3.40
2023-10-26T12:07:59.458Z,3.44
2023-10-26T12:10:27.835Z,3.42
2023-10-26T12:12:58.893Z,3.44
2023-10-26T12:15:27.198Z,3.42
2023-10-26T12:17:54.835Z,3.32
2023-10-26T12:20:22.563Z,3.24
2023-10-26T12:22:53.647Z,3.17
2023-10-26T12:25:21.496Z,3.14
2023-10-26T12:28:19.796Z,3.13
2023-10-26T12:30:36.811Z,3.14
2023-10-26T12:33:04.549Z,3.19
2023-10-26T12:35:32.282Z,3.23
2023-10-26T12:37:59.856Z,3.24
2023-10-26T12:40:27.474Z,3.20
2023-10-26T12:42:55.148Z,3.17
2023-10-26T12:45:22.957Z,3.11
2023-10-26T12:47:50.510Z,3.10
2023-10-26T12:50:18.223Z,3.09
2023-10-26T12:52:45.778Z,3.11
2023-10-26T12:55:13.306Z,3.10
2023-10-26T12:57:40.930Z,3.04
2023-10-26T13:00:09.373Z,2.99
2023-10-26T13:02:37.619Z,2.91
2023-10-26T13:05:05.511Z,2.86
2023-10-26T13:07:33.049Z,2.86
2023-10-26T13:10:00.663Z,2.85
2023-10-26T13:12:28.354Z,2.85
2023-10-26T13:14:56.785Z,2.83
2023-10-26T13:17:28.633Z,2.82
2023-10-26T13:19:56.438Z,2.82
2023-10-26T13:22:24.496Z,2.83
2023-10-26T13:24:52.383Z,2.86
2023-10-26T13:27:20.192Z,2.85
2023-10-26T13:29:48.016Z,2.83
2023-10-26T13:32:15.831Z,2.78
2023-10-26T13:34:43.955Z,2.71
2023-10-26T13:37:11.898Z,2.69
2023-10-26T13:39:39.757Z,2.65
2023-10-26T13:42:07.759Z,2.64
2023-10-26T13:44:35.626Z,2.61
2023-10-26T13:47:03.604Z,2.59
2023-10-26T13:49:31.417Z,2.54
2023-10-26T13:51:59.280Z,2.52
2023-10-26T13:54:27.137Z,2.52
2023-10-26T13:56:55.707Z,2.47
2023-10-26T13:59:24.706Z,2.45
2023-10-26T14:01:52.535Z,2.42
2023-10-26T14:04:20.437Z,2.38
2023-10-26T14:06:48.258Z,2.38
2023-10-26T14:09:16.873Z,2.40
2023-10-26T14:11:44.796Z,2.37
2023-10-26T14:14:13.554Z,2.40
2023-10-26T14:16:41.643Z,2.42
2023-10-26T14:19:10.243Z,2.41
2023-10-26T14:21:37.966Z,2.42
2023-10-26T14:24:07.578Z,2.42
2023-10-26T14:26:35.144Z,2.38
2023-10-26T14:29:03.058Z,2.36
2023-10-26T14:31:30.741Z,2.34
2023-10-26T14:33:58.419Z,2.31
2023-10-26T14:36:26.139Z,2.33
2023-10-26T14:38:53.893Z,2.31
2023-10-26T14:41:21.922Z,2.33
2023-10-26T14:43:51.113Z,2.30
2023-10-26T14:46:18.689Z,2.27
2023-10-26T14:48:46.544Z,2.26
2023-10-26T14:51:14.295Z,2.27
2023-10-26T14:53:42.004Z,2.21
2023-10-26T14:56:09.620Z,2.14
2023-10-26T14:58:37.264Z,2.14
2023-10-26T15:01:11.669Z,2.13
2023-10-26T15:03:39.979Z,2.10
2023-10-26T15:06:07.762Z,2.11
2023-10-26T15:08:35.572Z,2.06
2023-10-26T15:11:23.696Z,2.03
2023-10-26T15:13:51.025Z,1.99
2023-10-26T15:16:18.705Z,1.95
2023-10-26T15:18:46.584Z,1.90
2023-10-26T15:21:14.472Z,1.87
2023-10-26T15:23:42.307Z,1.86
2023-10-26T15:26:12.158Z,1.85
2023-10-26T15:28:39.980Z,1.83
2023-10-26T15:31:07.677Z,1.81
2023-10-26T15:33:35.396Z,1.79
2023-10-26T15:36:05.357Z,1.76
2023-10-26T15:38:34.902Z,1.78
2023-10-26T15:41:07.056Z,1.76
2023-10-26T15:43:35.804Z,1.81
2023-10-26T15:46:04.598Z,1.78
2023-10-26T15:49:31.711Z,1.79
2023-10-26T15:51:21.230Z,1.73
2023-10-26T15:53:48.917Z,1.73
2023-10-26T15:56:16.512Z,1.71
2023-10-26T15:58:44.341Z,1.71
2023-10-26T16:01:12.442Z,1.73
2023-10-26T16:03:40.299Z,1.73
2023-10-26T16:06:09.755Z,1.72
2023-10-26T16:08:43.257Z,1.72
2023-10-26T16:11:14.637Z,1.69
2023-10-26T16:13:46.853Z,1.68
2023-10-26T16:16:14.921Z,1.69
2023-10-26T16:18:47.463Z,1.69
2023-10-26T16:21:17.177Z,1.69
2023-10-26T16:23:44.872Z,1.69
2023-10-26T16:26:12.596Z,1.69
2023-10-26T16:28:40.139Z,1.76
2023-10-26T16:31:07.839Z,1.78
2023-10-26T16:33:38.103Z,1.76
2023-10-26T16:36:06.476Z,1.76
2023-10-26T16:38:34.307Z,1.76
2023-10-26T16:41:01.931Z,1.76
2023-10-26T16:43:29.517Z,1.75
2023-10-26T16:45:57.911Z,1.78
2023-10-26T16:48:27.877Z,1.81
2023-10-26T16:50:56.683Z,1.78
2023-10-26T16:55:59.804Z,1.75
2023-10-26T16:58:27.605Z,1.75
2023-10-26T17:00:57.643Z,1.71
2023-10-26T17:03:27.621Z,1.72
2023-10-26T17:05:55.174Z,1.71
2023-10-26T17:08:22.794Z,1.69
2023-10-26T17:10:51.589Z,1.65
2023-10-26T17:13:19.793Z,1.64
2023-10-26T17:15:50.980Z,1.64
2023-10-26T17:18:21.429Z,1.59
2023-10-26T17:20:52.608Z,1.59
2023-10-26T17:23:20.157Z,1.64
2023-10-26T17:25:47.788Z,1.64
2023-10-26T17:28:15.604Z,1.66
2023-10-26T17:30:43.195Z,1.61
2023-10-26T17:33:14.498Z,1.56
2023-10-26T17:35:49.247Z,1.51
2023-10-26T17:38:17.002Z,1.51
2023-10-26T17:40:46.598Z,1.52
2023-10-26T17:43:15.489Z,1.52
2023-10-26T17:45:43.582Z,1.55
2023-10-26T17:48:11.988Z,1.52
2023-10-26T17:50:43.739Z,1.52
2023-10-26T17:53:11.541Z,1.47
2023-10-26T17:55:39.203Z,1.48
2023-10-26T17:58:06.828Z,1.48
2023-10-26T18:00:34.419Z,1.50
2023-10-26T18:03:02.162Z,1.50
2023-10-26T18:05:30.021Z,1.52
2023-10-26T18:07:57.809Z,1.52
2023-10-26T18:10:25.357Z,1.52
2023-10-26T18:12:53.950Z,1.52
2023-10-26T18:15:21.500Z,1.54
2023-10-26T18:17:49.208Z,1.54
2023-10-26T18:20:16.835Z,1.55
2023-10-26T18:22:44.781Z,1.51
2023-10-26T18:25:12.454Z,1.51
2023-10-26T18:27:40.581Z,1.48
2023-10-26T18:30:08.896Z,1.50
2023-10-26T18:32:36.479Z,1.47
2023-10-26T18:35:05.370Z,1.48
2023-10-26T18:37:33.314Z,1.48
2023-10-26T18:40:01.220Z,1.51
2023-10-26T18:42:29.052Z,1.52
2023-10-26T18:44:56.772Z,1.55
2023-10-26T18:47:24.525Z,1.55
2023-10-26T18:49:52.251Z,1.55
2023-10-26T18:52:19.807Z,1.54
2023-10-26T18:54:47.443Z,1.55
2023-10-26T18:57:15.004Z,1.54
2023-10-26T18:59:43.775Z,1.54
2023-10-26T19:02:11.800Z,1.58
2023-10-26T19:04:39.468Z,1.56
2023-10-26T19:07:08.127Z,1.55
2023-10-26T19:09:36.453Z,1.58
2023-10-26T19:12:04.799Z,1.58
2023-10-26T19:14:33.191Z,1.59
2023-10-26T19:17:01.071Z,1.61
2023-10-26T19:19:28.761Z,1.65
2023-10-26T19:21:56.415Z,1.68
2023-10-26T19:24:24.598Z,1.68
2023-10-26T19:26:52.444Z,1.71
2023-10-26T19:29:19.971Z,1.72
2023-10-26T19:31:47.603Z,1.75
2023-10-26T19:34:15.247Z,1.69
2023-10-26T19:36:42.864Z,1.65
2023-10-26T19:39:10.433Z,1.61
2023-10-26T19:41:37.997Z,1.56
2023-10-26T19:44:05.707Z,1.58
2023-10-26T19:46:34.016Z,1.55
2023-10-26T19:49:02.058Z,1.54
2023-10-26T19:51:29.590Z,1.51
2023-10-26T19:53:57.353Z,1.51
2023-10-26T19:56:24.828Z,1.51
2023-10-26T19:58:52.442Z,1.50
2023-10-26T20:01:20.219Z,1.51
2023-10-26T20:03:48.010Z,1.52
2023-10-26T20:06:15.732Z,1.51
2023-10-26T20:08:43.521Z,1.48
2023-10-26T20:11:11.335Z,1.48
2023-10-26T20:13:38.980Z,1.52
2023-10-26T20:16:06.797Z,1.52
2023-10-26T20:18:46.217Z,1.54
2023-10-26T20:21:13.954Z,1.54
2023-10-26T20:23:41.567Z,1.51
2023-10-26T20:26:10.483Z,1.51
2023-10-26T20:28:38.225Z,1.47
2023-10-26T20:31:05.850Z,1.48
2023-10-26T20:33:33.532Z,1.43
2023-10-26T20:36:01.450Z,1.43
2023-10-26T20:38:29.101Z,1.41
2023-10-26T20:40:56.876Z,1.41
2023-10-26T20:43:24.434Z,1.40
2023-10-26T20:45:59.423Z,1.43
2023-10-26T20:48:27.390Z,1.40
2023-10-26T20:50:57.188Z,1.44
2023-10-26T20:53:29.504Z,1.43
2023-10-26T20:56:01.975Z,1.40
2023-10-26T20:58:30.628Z,1.37
2023-10-26T21:00:58.406Z,1.35
2023-10-26T21:03:26.327Z,1.40
2023-10-26T21:05:54.571Z,1.40
2023-10-26T21:08:23.346Z,1.35
2023-10-26T21:10:51.006Z,1.38
2023-10-26T21:13:21.339Z,1.37
2023-10-26T21:15:49.257Z,1.40
2023-10-26T21:18:16.818Z,1.43
2023-10-26T21:20:44.563Z,1.40
2023-10-26T21:23:12.114Z,1.40
2023-10-26T21:25:39.932Z,1.40
2023-10-26T21:28:08.562Z,1.44
2023-10-26T21:30:37.147Z,1.44
2023-10-26T21:33:05.528Z,1.48
2023-10-26T21:35:37.442Z,1.52
2023-10-26T21:38:05.971Z,1.52
2023-10-26T21:40:38.416Z,1.52
2023-10-26T21:43:07.125Z,1.56
2023-10-26T21:45:38.250Z,1.59
2023-10-26T21:48:06.174Z,1.62
2023-10-26T21:50:37.053Z,1.58
2023-10-26T21:53:04.666Z,1.59
2023-10-26T21:55:32.958Z,1.58
2023-10-26T21:58:01.217Z,1.61
2023-10-26T22:00:29.663Z,1.58
2023-10-26T22:02:57.680Z,1.56
2023-10-26T22:05:25.388Z,1.55
2023-10-26T22:07:52.910Z,1.55
2023-10-26T22:10:20.874Z,1.58
2023-10-26T22:12:49.055Z,1.58
2023-10-26T22:15:16.738Z,1.58
2023-10-26T22:17:44.461Z,1.55
2023-10-26T22:20:12.933Z,1.55
2023-10-26T22:22:40.557Z,1.55
2023-10-26T22:25:08.282Z,1.52
2023-10-26T22:27:36.196Z,1.50
2023-10-26T22:30:04.229Z,1.48
2023-10-26T22:32:32.006Z,1.52
2023-10-26T22:34:59.685Z,1.50
2023-10-26T22:37:27.422Z,1.50
2023-10-26T22:39:55.238Z,1.45
2023-10-26T22:42:22.850Z,1.44
2023-10-26T22:44:51.019Z,1.43
2023-10-26T22:47:18.533Z,1.45
2023-10-26T22:49:46.479Z,1.51
2023-10-26T22:52:14.307Z,1.52
2023-10-26T22:54:41.855Z,1.52
2023-10-26T22:57:09.673Z,1.54
2023-10-26T22:59:37.228Z,1.52
2023-10-26T23:02:04.813Z,1.54
2023-10-26T23:04:32.402Z,1.51
2023-10-26T23:07:01.427Z,1.50
2023-10-26T23:09:28.933Z,1.50
2023-10-26T23:11:56.419Z,1.51
2023-10-26T23:14:25.769Z,1.54
2023-10-26T23:16:53.286Z,1.51
2023-10-26T23:19:20.932Z,1.50
2023-10-26T23:21:48.944Z,1.50
2023-10-26T23:24:16.442Z,1.45
2023-10-26T23:26:44.192Z,1.44
2023-10-26T23:29:11.736Z,1.43
2023-10-26T23:31:39.312Z,1.45
2023-10-26T23:34:06.925Z,1.45
2023-10-26T23:36:34.588Z,1.47
2023-10-26T23:39:02.268Z,1.47
2023-10-26T23:41:30.330Z,1.47
2023-10-26T23:43:57.882Z,1.43
2023-10-26T23:46:26.711Z,1.43
2023-10-26T23:48:54.309Z,1.45
2023-10-26T23:51:22.618Z,1.45
2023-10-26T23:53:50.129Z,1.43
2023-10-26T23:56:17.679Z,1.41
2023-10-26T23:58:45.247Z,1.41
